Torrington, CT (06790)

1:05 AM EST on February 26, 2017 (GMT -0500)
Scott dr. | | Change Station

Elev 971 ft 41.81 °N, 73.09 °W | Updated 3 minutes ago

Mostly Cloudy
Mostly Cloudy
35.1 °F
Feels Like 27 °F
N
11.0
Wind Variable Wind from NW
Gusts 17.0 mph

Today
High -- | Low -- °F
--% Chance of Precip.
Yesterday
High -- | Low -- °F
Precip. -- in
Pressure 29.64 in
Visibility 10.0 miles
Clouds Mostly Cloudy 4000 ft
Windchill 27 °F
Dew Point 31 °F
Humidity 86%
Rainfall 0.02 in
Snow Depth Not available.
6:31 AM 5:39 PM
Waning Crescent, 0% visible
METAR KOXC 260555Z AUTO 30009G14KT 10SM BKN040 04/M02 A2964 RMK AO1 60044 10130 20040 52024
Pressure 29.64 in
Visibility 10.0 miles
Clouds Mostly Cloudy 4000 ft
Windchill 27 °F
Dew Point 31 °F
Humidity 86%
Rainfall 0.02 in
Snow Depth Not available.
6:31 AM 5:39 PM
Waning Crescent, 0% visible
METAR KOXC 260555Z AUTO 30009G14KT 10SM BKN040 04/M02 A2964 RMK AO1 60044 10130 20040 52024

Get Your Daily Forecast Email!

Thanks for signing up!

Be on the lookout for a verification email in your inbox.

You'll start receiving the daily forecast at 8 AM.

×

10-Day Weather Forecast

Almanac

Astronomy

Feb. 26, 2017 Rise Set
Actual Time
Civil Twilight
Nautical Twilight
Astronomical Twilight
Moon
Length of Visible Light
Length of Day
Tomorrow will be .
, % of the Moon is Illuminated

Today's Extremes

State Highs State Lows

Community

WunderPhotos

Upload Photos

1,962,540 photos uploaded!

WunderBlog® & News

Nearby

Air Quality

  Air Quality AQ Index Pollutant
Not available.

Snow Depth

Station Depth Elevation

Earthquake Activity

City Distance Mag. Time & Date
Minimum magnitude displayed is 2.5.

Coastal Water Temperatures

Place Temperature

Stations

Nearby Weather Stations

Station Location Temp. Windchill Dew Point Humidity Wind Precip. Elev Updated Type
                   

Watches & Warnings

There are currently no watches in effect.